createdAt,value
2022-10-27T00:00:28.873Z,14.74
2022-10-27T00:04:30.590Z,14.73
2022-10-27T00:08:32.238Z,14.72
2022-10-27T00:12:35.033Z,14.70
2022-10-27T00:16:36.739Z,14.70
2022-10-27T00:20:38.915Z,14.71
2022-10-27T00:24:41.493Z,14.71
2022-10-27T00:28:43.678Z,14.72
2022-10-27T00:32:45.450Z,14.73
2022-10-27T00:36:47.111Z,14.73
2022-10-27T00:40:49.245Z,14.72
2022-10-27T00:44:51.039Z,14.71
2022-10-27T00:48:56.618Z,14.70
2022-10-27T00:53:00.399Z,14.68
2022-10-27T00:57:02.665Z,14.66
2022-10-27T01:01:04.730Z,14.65
2022-10-27T01:05:19.885Z,14.62
2022-10-27T01:09:21.997Z,14.60
2022-10-27T01:13:25.074Z,14.58
2022-10-27T01:17:41.881Z,14.56
2022-10-27T01:21:56.706Z,14.54
2022-10-27T01:26:22.822Z,14.50
2022-10-27T01:30:24.710Z,14.49
2022-10-27T01:34:33.473Z,14.45
2022-10-27T01:38:47.658Z,14.41
2022-10-27T01:42:52.621Z,14.36
2022-10-27T01:46:56.640Z,14.32
2022-10-27T01:51:02.405Z,14.28
2022-10-27T01:55:04.978Z,14.24
2022-10-27T01:59:09.736Z,14.22
2022-10-27T02:03:18.222Z,14.19
2022-10-27T02:07:42.318Z,14.15
2022-10-27T02:11:47.493Z,14.11
2022-10-27T02:16:11.623Z,14.08
2022-10-27T02:20:21.654Z,14.03
2022-10-27T02:24:24.984Z,14.01
2022-10-27T02:28:32.712Z,13.97
2022-10-27T02:32:35.428Z,13.92
2022-10-27T02:36:37.221Z,13.90
2022-10-27T02:40:39.270Z,13.90
2022-10-27T02:44:40.950Z,13.90
2022-10-27T02:48:42.637Z,13.87
2022-10-27T02:52:44.387Z,13.86
2022-10-27T02:56:46.057Z,13.83
2022-10-27T03:00:47.831Z,13.80
2022-10-27T03:04:49.526Z,13.79
2022-10-27T03:08:51.284Z,13.77
2022-10-27T03:12:53.319Z,13.75
2022-10-27T03:16:55.092Z,13.75
2022-10-27T03:20:56.758Z,13.73
2022-10-27T03:24:58.493Z,13.73
2022-10-27T03:29:00.254Z,13.74
2022-10-27T03:33:02.176Z,13.75
2022-10-27T03:37:03.906Z,13.76
2022-10-27T03:41:06.120Z,13.76
2022-10-27T03:45:09.563Z,13.73
2022-10-27T03:49:11.635Z,13.72
2022-10-27T03:53:13.847Z,13.71
2022-10-27T03:57:15.546Z,13.68
2022-10-27T04:01:17.335Z,13.67
2022-10-27T04:05:19.066Z,13.64
2022-10-27T04:09:20.782Z,13.63
2022-10-27T04:13:25.516Z,13.62
2022-10-27T04:17:30.027Z,13.61
2022-10-27T04:21:31.735Z,13.60
2022-10-27T04:25:33.502Z,13.58
2022-10-27T04:29:35.236Z,13.56
2022-10-27T04:33:36.948Z,13.56
2022-10-27T04:37:38.599Z,13.57
2022-10-27T04:41:40.711Z,13.58
2022-10-27T04:45:42.467Z,13.57
2022-10-27T04:49:44.111Z,13.59
2022-10-27T04:53:45.830Z,13.61
2022-10-27T04:57:47.504Z,13.60
2022-10-27T05:01:49.270Z,13.59
2022-10-27T05:05:51.011Z,13.58
2022-10-27T05:09:52.667Z,13.56
2022-10-27T05:13:54.351Z,13.52
2022-10-27T05:17:56.628Z,13.51
2022-10-27T05:21:58.348Z,13.50
2022-10-27T05:26:00.082Z,13.50
2022-10-27T05:30:02.014Z,13.50
2022-10-27T05:34:03.697Z,13.49
2022-10-27T05:38:05.364Z,13.47
2022-10-27T05:42:07.052Z,13.48
2022-10-27T05:46:08.952Z,13.48
2022-10-27T05:50:10.779Z,13.49
2022-10-27T05:54:12.495Z,13.48
2022-10-27T05:58:14.194Z,13.47
2022-10-27T06:02:16.043Z,13.48
2022-10-27T06:06:17.820Z,13.47
2022-10-27T06:10:19.744Z,13.45
2022-10-27T06:14:21.389Z,13.46
2022-10-27T06:18:22.995Z,13.46
2022-10-27T06:22:24.701Z,13.46
2022-10-27T06:26:26.385Z,13.45
2022-10-27T06:30:28.015Z,13.44
2022-10-27T06:34:29.714Z,13.43
2022-10-27T06:38:31.449Z,13.43
2022-10-27T06:42:48.638Z,13.43
2022-10-27T06:46:51.430Z,13.43
2022-10-27T06:50:53.110Z,13.44
2022-10-27T06:54:55.278Z,13.45
2022-10-27T06:58:57.177Z,13.43
2022-10-27T07:02:59.008Z,13.41
2022-10-27T07:07:00.731Z,13.40
2022-10-27T07:11:02.442Z,13.38
2022-10-27T07:15:04.469Z,13.37
2022-10-27T07:19:06.237Z,13.36
2022-10-27T07:23:10.450Z,13.36
2022-10-27T07:27:12.272Z,13.34
2022-10-27T07:31:14.056Z,13.32
2022-10-27T07:35:16.685Z,13.35
2022-10-27T07:39:18.407Z,13.37
2022-10-27T07:43:20.083Z,13.42
2022-10-27T07:47:21.802Z,13.49
2022-10-27T07:51:23.616Z,13.56
2022-10-27T07:55:26.871Z,13.64
2022-10-27T07:59:28.703Z,13.71
2022-10-27T08:03:31.959Z,13.78
2022-10-27T08:07:34.574Z,13.87
2022-10-27T08:11:36.332Z,13.95
2022-10-27T08:15:40.150Z,14.04
2022-10-27T08:19:42.138Z,14.14
2022-10-27T08:23:43.794Z,14.23
2022-10-27T08:27:45.480Z,14.30
2022-10-27T08:31:47.162Z,14.39
2022-10-27T08:35:50.499Z,14.47
2022-10-27T08:39:52.220Z,14.57
2022-10-27T08:44:10.684Z,14.66
2022-10-27T08:48:13.129Z,14.74
2022-10-27T08:52:30.103Z,14.81
2022-10-27T08:56:39.466Z,14.88
2022-10-27T09:00:51.810Z,14.94
2022-10-27T09:05:15.087Z,14.98
2022-10-27T09:09:38.231Z,15.04
2022-10-27T09:14:12.541Z,15.11
2022-10-27T09:18:28.053Z,15.22
2022-10-27T09:22:32.171Z,15.31
2022-10-27T09:26:34.032Z,15.36
2022-10-27T09:30:39.216Z,15.38
2022-10-27T09:34:46.659Z,15.42
2022-10-27T09:38:48.628Z,15.47
2022-10-27T09:42:56.791Z,15.52
2022-10-27T09:46:58.487Z,15.58
2022-10-27T09:51:08.503Z,15.65
2022-10-27T09:55:11.126Z,15.69
2022-10-27T09:59:22.742Z,15.74
2022-10-27T10:03:25.124Z,15.75
2022-10-27T10:07:36.255Z,15.80
2022-10-27T10:11:37.935Z,15.83
2022-10-27T10:15:44.364Z,15.87
2022-10-27T10:19:47.432Z,15.91
2022-10-27T10:23:49.051Z,15.97
2022-10-27T10:27:58.564Z,16.04
2022-10-27T10:32:15.934Z,16.10
2022-10-27T10:36:17.541Z,16.14
2022-10-27T10:40:27.931Z,16.18
2022-10-27T10:44:29.561Z,16.22
2022-10-27T10:48:47.414Z,16.28
2022-10-27T10:52:52.562Z,16.32
2022-10-27T10:56:56.074Z,16.37
2022-10-27T11:01:04.167Z,16.41
2022-10-27T11:05:13.698Z,16.41
2022-10-27T11:09:15.441Z,16.48
2022-10-27T11:18:02.340Z,16.60
2022-10-27T11:22:11.304Z,16.65
2022-10-27T11:26:16.529Z,16.70
2022-10-27T11:30:24.889Z,16.76
2022-10-27T11:34:53.660Z,16.83
2022-10-27T11:39:16.400Z,16.84
2022-10-27T11:43:43.630Z,16.82
2022-10-27T11:48:14.931Z,16.75
2022-10-27T11:52:35.573Z,16.74
2022-10-27T11:57:11.402Z,16.72
2022-10-27T12:01:16.305Z,16.74
2022-10-27T12:05:49.171Z,16.74
2022-10-27T12:10:05.949Z,16.81
2022-10-27T12:14:07.606Z,16.85
2022-10-27T12:18:10.167Z,16.87
2022-10-27T12:22:35.812Z,16.91
2022-10-27T12:27:00.293Z,16.96
2022-10-27T12:31:05.336Z,17.02
2022-10-27T12:35:43.012Z,17.10
2022-10-27T12:39:57.178Z,17.16
2022-10-27T12:44:46.713Z,17.20
2022-10-27T12:49:06.926Z,17.24
2022-10-27T12:53:29.456Z,17.26
2022-10-27T12:57:52.195Z,17.30
2022-10-27T13:02:05.992Z,17.34
2022-10-27T13:06:21.737Z,17.37
2022-10-27T13:10:44.631Z,17.40
2022-10-27T13:15:04.315Z,17.42
2022-10-27T13:19:20.024Z,17.44
2022-10-27T13:23:28.720Z,17.48
2022-10-27T13:28:00.652Z,17.55
2022-10-27T13:32:26.527Z,17.64
2022-10-27T13:36:28.735Z,17.73
2022-10-27T13:40:37.305Z,17.78
2022-10-27T13:44:39.477Z,17.84
2022-10-27T13:48:47.518Z,17.85
2022-10-27T13:53:09.026Z,17.89
2022-10-27T13:57:30.244Z,17.94
2022-10-27T14:01:50.850Z,17.90
2022-10-27T14:05:53.410Z,17.87
2022-10-27T14:09:55.350Z,17.88
2022-10-27T14:13:58.353Z,17.88
2022-10-27T14:18:00.324Z,17.89
2022-10-27T14:22:04.715Z,17.92
2022-10-27T14:26:25.182Z,17.94
2022-10-27T14:30:26.856Z,17.95
2022-10-27T14:34:28.604Z,17.93
2022-10-27T14:42:34.390Z,17.90
2022-10-27T14:46:43.956Z,17.89
2022-10-27T14:50:45.939Z,17.87
2022-10-27T14:54:53.797Z,17.87
2022-10-27T14:58:58.726Z,17.84
2022-10-27T15:03:04.043Z,17.81
2022-10-27T15:07:14.654Z,17.83
2022-10-27T15:11:20.293Z,17.81
2022-10-27T15:15:27.446Z,17.79
2022-10-27T15:19:29.279Z,17.77
2022-10-27T15:23:32.791Z,17.76
2022-10-27T15:27:35.340Z,17.73
2022-10-27T15:31:41.058Z,17.71
2022-10-27T15:35:43.611Z,17.67
2022-10-27T15:39:45.312Z,17.65
2022-10-27T15:43:49.784Z,17.60
2022-10-27T15:47:51.491Z,17.56
2022-10-27T15:51:59.666Z,17.51
2022-10-27T15:56:35.931Z,17.46
2022-10-27T16:00:37.712Z,17.40
2022-10-27T16:04:40.168Z,17.36
2022-10-27T16:08:41.916Z,17.31
2022-10-27T16:12:44.415Z,17.27
2022-10-27T16:16:46.716Z,17.21
2022-10-27T16:20:48.366Z,17.15
2022-10-27T16:24:50.091Z,17.08
2022-10-27T16:28:54.928Z,17.03
2022-10-27T16:33:02.327Z,16.98
2022-10-27T16:37:30.903Z,16.93
2022-10-27T16:41:32.609Z,16.87
2022-10-27T16:45:34.351Z,16.82
2022-10-27T16:49:36.028Z,16.78
2022-10-27T16:53:37.763Z,16.74
2022-10-27T16:57:41.762Z,16.71
2022-10-27T17:01:45.695Z,16.69
2022-10-27T17:05:47.453Z,16.66
2022-10-27T17:09:49.179Z,16.64
2022-10-27T17:13:50.916Z,16.61
2022-10-27T17:17:52.599Z,16.59
2022-10-27T17:21:54.287Z,16.57
2022-10-27T17:26:04.190Z,16.54
2022-10-27T17:30:06.379Z,16.50
2022-10-27T17:34:08.109Z,16.43
2022-10-27T17:38:09.934Z,16.38
2022-10-27T17:42:11.722Z,16.32
2022-10-27T17:46:13.386Z,16.27
2022-10-27T17:50:15.112Z,16.22
2022-10-27T17:54:17.311Z,16.19
2022-10-27T17:58:18.980Z,16.16
2022-10-27T18:02:20.639Z,16.15
2022-10-27T18:06:27.329Z,16.14
2022-10-27T18:10:29.113Z,16.12
2022-10-27T18:14:30.817Z,16.11
2022-10-27T18:18:33.314Z,16.08
2022-10-27T18:22:34.986Z,16.06
2022-10-27T18:26:41.803Z,16.03
2022-10-27T18:30:43.525Z,15.98
2022-10-27T18:34:45.181Z,15.95
2022-10-27T18:38:47.839Z,15.92
2022-10-27T18:42:49.528Z,15.89
2022-10-27T18:46:51.298Z,15.85
2022-10-27T18:51:04.593Z,15.82
2022-10-27T18:55:06.365Z,15.79
2022-10-27T18:59:08.449Z,15.79
2022-10-27T19:03:10.584Z,15.77
2022-10-27T19:07:12.269Z,15.74
2022-10-27T19:11:15.645Z,15.72
2022-10-27T19:15:17.500Z,15.72
2022-10-27T19:19:19.214Z,15.74
2022-10-27T19:23:20.895Z,15.78
2022-10-27T19:27:22.697Z,15.79
2022-10-27T19:31:27.519Z,15.82
2022-10-27T19:35:29.183Z,15.84
2022-10-27T19:39:31.083Z,15.86
2022-10-27T19:43:32.814Z,15.87
2022-10-27T19:47:34.571Z,15.88
2022-10-27T19:51:38.226Z,15.87
2022-10-27T19:55:39.987Z,15.89
2022-10-27T19:59:43.646Z,15.91
2022-10-27T20:03:45.653Z,15.93
2022-10-27T20:07:47.318Z,15.93
2022-10-27T20:11:50.218Z,15.93
2022-10-27T20:15:51.864Z,15.93
2022-10-27T20:19:53.535Z,15.93
2022-10-27T20:23:55.323Z,15.92
2022-10-27T20:27:57.120Z,15.90
2022-10-27T20:31:58.935Z,15.89
2022-10-27T20:36:02.612Z,15.89
2022-10-27T20:40:04.648Z,15.91
2022-10-27T20:44:06.697Z,15.93
2022-10-27T20:48:10.456Z,15.93
2022-10-27T20:52:12.241Z,15.91
2022-10-27T20:56:26.173Z,15.87
2022-10-27T21:00:28.008Z,15.85
2022-10-27T21:04:29.723Z,15.83
2022-10-27T21:08:31.398Z,15.81
2022-10-27T21:12:33.148Z,15.76
2022-10-27T21:16:35.537Z,15.73
2022-10-27T21:20:37.286Z,15.72
2022-10-27T21:24:38.934Z,15.71
2022-10-27T21:28:40.906Z,15.70
2022-10-27T21:32:42.593Z,15.68
2022-10-27T21:36:44.277Z,15.68
2022-10-27T21:40:45.912Z,15.67
2022-10-27T21:44:48.368Z,15.67
2022-10-27T21:49:01.173Z,15.65
2022-10-27T21:53:02.875Z,15.65
2022-10-27T21:57:04.528Z,15.66
2022-10-27T22:01:17.793Z,15.67
2022-10-27T22:05:19.485Z,15.69
2022-10-27T22:13:42.880Z,15.69
2022-10-27T22:17:44.541Z,15.70
2022-10-27T22:21:47.376Z,15.72
2022-10-27T22:25:49.081Z,15.71
2022-10-27T22:29:50.953Z,15.73
2022-10-27T22:33:53.182Z,15.70
2022-10-27T22:37:55.124Z,15.68
2022-10-27T22:41:57.071Z,15.68
2022-10-27T22:45:58.886Z,15.66
2022-10-27T22:50:00.798Z,15.64
2022-10-27T22:54:02.901Z,15.62
2022-10-27T22:58:05.947Z,15.62
2022-10-27T23:02:07.790Z,15.60
2022-10-27T23:06:09.832Z,15.60
2022-10-27T23:10:11.541Z,15.58
2022-10-27T23:14:15.345Z,15.56
2022-10-27T23:18:17.066Z,15.55
2022-10-27T23:22:18.994Z,15.52
2022-10-27T23:26:23.160Z,15.48
2022-10-27T23:30:24.919Z,15.43
2022-10-27T23:34:26.599Z,15.40
2022-10-27T23:38:29.146Z,15.37
2022-10-27T23:42:30.806Z,15.32
2022-10-27T23:46:32.550Z,15.28
2022-10-27T23:50:34.254Z,15.27
2022-10-27T23:54:35.914Z,15.26
2022-10-27T23:58:40.247Z,15.26
